ENFL

Florø Airport

Florø, Norway
METAR ENFL 211950Z 12015KT 9999 FEW025 BKN040 03/M03 Q1008
Observed Flight Rules
Jan-21 @ 19:50 UTC (18 minutes ago) Visual Flight Rules
Wind Visibility Clouds
120° at 15 knots 10,000+ meters
  • Few at 2,500' AGL
  • Broken at 4,000' AGL
Temperatures Readings
Current 3°C / 37°F
Dewpoint -3°C / 27°F
Humidity 65%
Altimeter 29.76" Hg
Pressure 1007.92 hPa
Elevation 9
METAR ENFL 211950Z 12015KT 9999 FEW025 BKN040 03/M03 Q1008
Observed Flight Rules
Jan-21 @ 19:50 UTC
(18 minutes ago)
VFR
Wind Visibility
120° at 15 knots 10,000+ meters
Clouds
  • Few at 2,500' AGL
  • Broken at 4,000' AGL
Temperature Dewpoint
3°C / 37°F -3°C / 27°F
Humidity Altimeter Pressure
65% 29.76" Hg 1007.92 hPa